This is the latest recevied weather packets stored in our database for station/object JA6CFI-13. If no packets are shown the sender has not sent any weather packets the latest 10 day(s).
| Time | Temp. | Humidity | Pressure | Rain* | Wind** | Luminosity | Snow |
|---|---|---|---|---|---|---|---|
| 1778041401 | 24.44° C | 59% | 1015.9 hPa | 0 mm | - | - | - |
| 1778040622 | 24.44° C | 58% | 1016.1 hPa | 0 mm | - | - | - |
| 1778039842 | 23.89° C | 59% | 1016.1 hPa | 0 mm | - | - | - |
| 1778039062 | 25° C | 56% | 1016.4 hPa | 0 mm | - | - | - |
| 1778038281 | 25° C | 57% | 1016.6 hPa | 0 mm | - | - | - |
| 1778037501 | 25.56° C | 55% | 1016.8 hPa | 0 mm | - | - | - |
| 1778036722 | 26.11° C | 52% | 1016.9 hPa | 0 mm | - | - | - |
| 1778035941 | 26.11° C | 50% | 1017.1 hPa | 0 mm | - | - | - |
| 1778035325 | 25.56° C | 49% | 1017.2 hPa | 0 mm | - | - | - |
| 1778035161 | 25.56° C | 49% | 1017.2 hPa | 0 mm | - | - | - |
| 1778034382 | 26.11° C | 48% | 1017.5 hPa | 0 mm | - | - | - |
| 1778033602 | 25° C | 51% | 1017.7 hPa | 0 mm | - | - | - |
| 1778033523 | 25° C | 51% | 1017.8 hPa | 0 mm | - | - | - |
| 1778032821 | 25° C | 53% | 1017.9 hPa | 0 mm | - | - | - |
| 1778032041 | 24.44° C | 55% | 1018.1 hPa | 0 mm | - | - | - |
| 1778031724 | 23.89° C | 55% | 1018.2 hPa | 0 mm | - | - | - |
| 1778031262 | 23.33° C | 58% | 1018.1 hPa | 0 mm | - | - | - |
| 1778030482 | 23.33° C | 59% | 1018.1 hPa | 0 mm | - | - | - |
| 1778029701 | 22.22° C | 60% | 1018.2 hPa | 0 mm | - | - | - |
| 1778028921 | 22.22° C | 60% | 1018.1 hPa | 0 mm | - | - | - |
| 1778028140 | 21.67° C | 61% | 1018.2 hPa | 0 mm | - | - | - |
| 1778027361 | 21.11° C | 62% | 1018.3 hPa | 0 mm | - | - | - |
| 1778026580 | 21.67° C | 61% | 1018.4 hPa | 0 mm | - | - | - |
| 1778025802 | 21.11° C | 64% | 1018.4 hPa | 0 mm | - | - | - |
| 1778025021 | 20° C | 66% | 1018.4 hPa | 0 mm | - | - | - |
* Rain latest hour (hover to see other rain measurements)
** Current wind speed in m/s (hover to see current wind gust speed)